Time;durP1;ratioP1;P1;durP2;ratioP2;P2;SDS_P1;SDS_P2;PMS_P1;PMS_P2;Temp;Humidity;BMP_temperature;BMP_pressure;BME280_temperature;BME280_humidity;BME280_pressure;Samples;Min_cycle;Max_cycle;Signal;HPM_P1;HPM_P2
2022/01/07 00:02:00;;;;;;;13.02;3.90;;;;;;;-1.74;92.00;100407.41;5083911;28;20040;-75
2022/01/07 00:04:25;;;;;;;18.15;4.25;;;;;;;-1.79;91.92;100404.06;5077179;28;20036;-74
2022/01/07 00:06:51;;;;;;;9.63;4.30;;;;;;;-1.74;92.06;100404.00;5065129;28;20489;-73
2022/01/07 00:09:18;;;;;;;12.15;3.78;;;;;;;-1.72;91.79;100399.69;5058129;28;20025;-74
2022/01/07 00:11:43;;;;;;;8.77;3.40;;;;;;;-1.72;91.85;100397.09;5064161;28;20498;-74
2022/01/07 00:14:08;;;;;;;7.40;3.38;;;;;;;-1.73;91.50;100398.00;5078188;28;20173;-72
2022/01/07 00:16:34;;;;;;;12.52;4.30;;;;;;;-1.71;91.70;100398.78;5074051;28;20032;-73
2022/01/07 00:18:59;;;;;;;15.00;4.20;;;;;;;-1.71;91.67;100397.09;5073920;28;20394;-73
2022/01/07 00:21:24;;;;;;;17.63;4.30;;;;;;;-1.71;91.50;100397.09;5082610;28;20117;-74
2022/01/07 00:23:50;;;;;;;12.68;3.85;;;;;;;-1.73;91.49;100395.41;5077869;28;20035;-72
2022/01/07 00:26:15;;;;;;;14.18;4.05;;;;;;;-1.71;91.59;100396.22;5071153;28;20494;-75
2022/01/07 00:28:40;;;;;;;9.48;4.30;;;;;;;-1.72;91.41;100389.41;5070740;28;20121;-73
2022/01/07 00:31:06;;;;;;;14.10;4.15;;;;;;;-1.71;91.18;100386.81;5055348;28;20033;-75
2022/01/07 00:33:31;;;;;;;13.35;4.13;;;;;;;-1.73;91.51;100380.00;5064807;28;20027;-75
2022/01/07 00:35:57;;;;;;;17.88;3.70;;;;;;;-1.71;91.20;100378.22;5057899;28;20063;-75
2022/01/07 00:38:23;;;;;;;14.95;3.55;;;;;;;-1.71;91.45;100379.09;5061957;28;20036;-75
2022/01/07 00:40:48;;;;;;;17.00;3.42;;;;;;;-1.68;90.94;100378.19;5080424;28;20196;-73
2022/01/07 00:43:14;;;;;;;14.85;3.40;;;;;;;-1.66;91.01;100380.75;5078162;28;20626;-76
2022/01/07 00:45:39;;;;;;;15.30;3.22;;;;;;;-1.64;90.61;100384.97;5068999;28;20432;-75
2022/01/07 00:48:05;;;;;;;10.98;3.88;;;;;;;-1.64;90.64;100379.00;5077650;28;20043;-75
2022/01/07 00:50:31;;;;;;;13.82;3.38;;;;;;;-1.61;90.89;100376.38;5090800;28;20036;-74
2022/01/07 00:52:59;;;;;;;11.05;3.92;;;;;;;-1.60;91.14;100378.06;5090734;28;20604;-75
2022/01/07 00:55:26;;;;;;;24.07;4.00;;;;;;;-1.58;91.32;100373.78;5090216;28;20036;-74
2022/01/07 00:57:53;;;;;;;12.00;3.88;;;;;;;-1.54;91.53;100375.41;5078192;28;20024;-75
2022/01/07 01:00:21;;;;;;;13.40;3.55;;;;;;;-1.50;91.54;100382.19;5090380;28;20537;-74
2022/01/07 01:02:47;;;;;;;11.65;3.42;;;;;;;-1.49;91.08;100377.03;5083404;28;20032;-73
2022/01/07 01:05:14;;;;;;;14.77;3.80;;;;;;;-1.49;91.23;100378.75;5083636;28;20043;-74
2022/01/07 01:07:40;;;;;;;12.68;3.63;;;;;;;-1.52;91.34;100373.66;5064319;28;20032;-74
2022/01/07 01:10:07;;;;;;;10.02;2.97;;;;;;;-1.52;91.29;100371.09;5064262;28;20052;-75
2022/01/07 01:12:38;;;;;;;22.60;4.25;;;;;;;-1.56;91.30;100374.56;5065831;28;20569;-75
2022/01/07 01:15:05;;;;;;;8.98;3.97;;;;;;;-1.56;91.47;100377.16;5066096;28;20044;-76
2022/01/07 01:17:31;;;;;;;10.65;4.00;;;;;;;-1.60;91.60;100362.66;5065864;28;20040;-73
2022/01/07 01:19:56;;;;;;;16.27;4.05;;;;;;;-1.59;91.09;100359.22;5058930;28;20569;-75
2022/01/07 01:22:22;;;;;;;13.98;4.55;;;;;;;-1.64;91.23;100367.00;5062910;28;20123;-74
2022/01/07 01:24:47;;;;;;;13.23;4.30;;;;;;;-1.63;91.58;100370.41;5062458;28;20395;-74
2022/01/07 01:27:12;;;;;;;9.13;3.95;;;;;;;-1.62;91.52;100362.69;5063189;28;20021;-76
2022/01/07 01:29:38;;;;;;;13.85;4.30;;;;;;;-1.63;91.22;100361.00;5055946;28;20109;-73
2022/01/07 01:32:04;;;;;;;18.02;3.97;;;;;;;-1.66;91.07;100357.63;5065770;28;20421;-75
2022/01/07 01:34:29;;;;;;;13.60;3.72;;;;;;;-1.75;91.46;100346.59;5066510;28;20140;-73
2022/01/07 01:36:54;;;;;;;12.25;4.35;;;;;;;-1.82;91.64;100350.13;5067442;28;20051;-74
2022/01/07 01:39:20;;;;;;;23.05;6.03;;;;;;;-1.88;91.62;100357.94;5068376;28;20111;-74
2022/01/07 01:41:45;;;;;;;16.60;4.35;;;;;;;-1.86;91.89;100355.34;5068417;28;20043;-74
2022/01/07 01:44:10;;;;;;;17.45;5.95;;;;;;;-1.86;91.97;100343.34;5065547;28;20060;-72
2022/01/07 01:46:36;;;;;;;17.05;5.07;;;;;;;-1.84;91.75;100346.75;5067866;28;20139;-73
2022/01/07 01:49:04;;;;;;;15.20;4.72;;;;;;;-1.79;91.88;100350.09;5066425;28;20550;-72
2022/01/07 01:51:29;;;;;;;17.13;4.40;;;;;;;-1.83;91.87;100342.44;5066467;28;20037;-74
2022/01/07 01:53:55;;;;;;;18.77;3.78;;;;;;;-1.86;91.57;100339.91;5068671;28;20036;-73
2022/01/07 01:56:20;;;;;;;13.85;4.22;;;;;;;-1.81;91.60;100340.72;5066196;28;20505;-72
2022/01/07 01:58:46;;;;;;;17.70;4.40;;;;;;;-1.82;91.45;100336.44;5017804;28;1019961;-73
2022/01/07 02:01:11;;;;;;;12.68;4.65;;;;;;;-1.83;92.08;100342.44;5066718;28;20041;-74
2022/01/07 02:03:36;;;;;;;17.65;4.53;;;;;;;-1.81;91.72;100336.44;5070094;28;20403;-74
2022/01/07 02:06:02;;;;;;;12.32;3.80;;;;;;;-1.81;91.88;100344.13;5072056;28;20024;-76
2022/01/07 02:08:29;;;;;;;13.88;4.40;;;;;;;-1.84;91.65;100343.34;5065646;28;20033;-74
2022/01/07 02:10:55;;;;;;;15.68;3.67;;;;;;;-1.88;91.95;100345.09;5070080;28;20032;-75
2022/01/07 02:13:20;;;;;;;16.02;3.80;;;;;;;-1.85;91.81;100333.94;5066909;28;20524;-73
2022/01/07 02:15:46;;;;;;;11.77;3.92;;;;;;;-1.85;92.01;100328.78;5065496;28;20056;-74
2022/01/07 02:18:11;;;;;;;14.07;4.50;;;;;;;-1.85;92.14;100318.53;5061402;28;20044;-73
2022/01/07 02:20:37;;;;;;;22.63;5.55;;;;;;;-1.87;91.96;100323.66;5056859;28;20036;-75
2022/01/07 02:23:02;;;;;;;22.58;5.35;;;;;;;-1.84;92.20;100310.78;5067651;28;20039;-75
2022/01/07 02:25:28;;;;;;;12.07;4.03;;;;;;;-1.80;92.23;100311.56;5054805;28;20040;-76
2022/01/07 02:27:55;;;;;;;12.32;4.32;;;;;;;-1.75;92.22;100307.19;5063381;28;20021;-75
2022/01/07 02:30:26;;;;;;;10.18;3.78;;;;;;;-1.68;91.87;100310.50;5060701;28;20089;-76
2022/01/07 02:32:52;;;;;;;16.40;4.45;;;;;;;-1.69;91.94;100303.69;5061895;28;20037;-75
2022/01/07 02:35:21;;;;;;;14.07;4.00;;;;;;;-1.66;91.59;100295.94;5059178;28;20032;-75
2022/01/07 02:37:47;;;;;;;14.13;3.92;;;;;;;-1.65;91.72;100300.19;5053750;28;20037;-75
2022/01/07 02:40:13;;;;;;;16.63;4.53;;;;;;;-1.67;91.56;100295.06;5065832;28;20151;-76
2022/01/07 02:42:38;;;;;;;9.80;3.80;;;;;;;-1.65;91.40;100301.03;5063406;28;20175;-74
2022/01/07 02:45:08;;;;;;;17.15;3.88;;;;;;;-1.61;91.50;100296.69;5062039;28;20124;-76
2022/01/07 02:47:53;;;;;;;12.52;4.18;;;;;;;-1.60;91.45;100285.53;5065810;28;20032;-74
2022/01/07 02:50:28;;;;;;;19.88;4.57;;;;;;;-1.58;91.07;100276.06;5064382;28;20029;-74
2022/01/07 02:52:55;;;;;;;18.58;3.97;;;;;;;-1.55;91.10;100273.47;5064039;28;20051;-75
2022/01/07 02:55:21;;;;;;;14.65;4.22;;;;;;;-1.54;90.58;100264.88;5066426;28;20032;-75
2022/01/07 02:57:47;;;;;;;15.68;5.03;;;;;;;-1.55;90.38;100258.03;5061489;28;20020;-75
2022/01/07 03:00:16;;;;;;;17.75;4.72;;;;;;;-1.52;90.46;100260.53;5070006;28;20039;-73
2022/01/07 03:02:42;;;;;;;12.40;4.57;;;;;;;-1.51;89.99;100259.66;5067500;28;20110;-74
2022/01/07 03:05:07;;;;;;;12.90;4.28;;;;;;;-1.51;90.07;100260.50;5068120;28;20502;-75
2022/01/07 03:07:33;;;;;;;13.82;4.10;;;;;;;-1.52;90.09;100252.81;5066831;28;20176;-72
2022/01/07 03:09:59;;;;;;;18.27;4.63;;;;;;;-1.54;90.30;100246.88;5063298;28;20047;-73
2022/01/07 03:12:24;;;;;;;14.27;4.93;;;;;;;-1.56;90.45;100243.47;5068192;28;20036;-74
2022/01/07 03:14:49;;;;;;;16.38;4.10;;;;;;;-1.51;90.46;100239.94;5062671;28;20660;-75
2022/01/07 03:17:15;;;;;;;13.75;4.55;;;;;;;-1.47;90.13;100230.44;5066563;28;20040;-75
2022/01/07 03:19:40;;;;;;;18.67;4.90;;;;;;;-1.41;90.08;100232.03;5069456;28;20047;-74
2022/01/07 03:22:06;;;;;;;12.27;4.20;;;;;;;-1.39;89.75;100230.31;5060545;28;20062;-75
2022/01/07 03:24:31;;;;;;;17.08;4.63;;;;;;;-1.37;89.81;100226.84;5060594;28;20035;-75
2022/01/07 03:26:56;;;;;;;18.00;4.72;;;;;;;-1.32;89.48;100229.31;5069884;28;20157;-73
2022/01/07 03:29:21;;;;;;;23.55;14.50;;;;;;;-1.32;89.22;100235.31;5068644;28;20048;-72
2022/01/07 03:31:47;;;;;;;12.40;4.30;;;;;;;-1.34;89.13;100213.91;5069731;28;20035;-74
2022/01/07 03:34:12;;;;;;;12.77;4.32;;;;;;;-1.34;89.31;100219.03;5068068;28;20040;-75
2022/01/07 03:36:37;;;;;;;13.70;4.10;;;;;;;-1.28;89.28;100212.94;5062620;28;20024;-74
2022/01/07 03:39:03;;;;;;;13.75;4.93;;;;;;;-1.28;89.25;100213.78;5069835;28;20031;-72
2022/01/07 03:41:28;;;;;;;18.08;4.75;;;;;;;-1.29;89.40;100209.53;5067771;28;20089;-73
2022/01/07 03:43:54;;;;;;;23.13;4.38;;;;;;;-1.30;89.40;100209.53;5066202;28;20076;-73
2022/01/07 03:46:20;;;;;;;19.58;4.70;;;;;;;-1.31;89.55;100211.28;5065697;28;20171;-71
2022/01/07 03:48:45;;;;;;;19.60;5.00;;;;;;;-1.27;89.43;100218.03;5066206;28;20027;-74
2022/01/07 03:51:10;;;;;;;17.92;5.30;;;;;;;-1.27;89.60;100212.91;5067292;28;20493;-73
2022/01/07 03:53:36;;;;;;;14.43;4.90;;;;;;;-1.31;89.52;100211.28;5067706;28;20036;-74
2022/01/07 03:56:01;;;;;;;16.73;5.25;;;;;;;-1.36;90.14;100201.97;5068028;28;20027;-75
2022/01/07 03:58:27;;;;;;;15.60;5.15;;;;;;;-1.36;89.70;100194.25;5055931;28;20116;-75
2022/01/07 04:00:52;;;;;;;14.48;5.07;;;;;;;-1.40;89.85;100188.31;5065810;28;20400;-74
2022/01/07 04:03:18;;;;;;;17.45;5.13;;;;;;;-1.34;90.17;100190.75;5068689;28;20095;-75
2022/01/07 04:05:45;;;;;;;19.30;5.80;;;;;;;-1.28;90.21;100188.06;5065261;28;20170;-75
2022/01/07 04:08:10;;;;;;;17.85;5.78;;;;;;;-1.23;89.81;100185.41;5061721;28;20529;-72
2022/01/07 04:10:37;;;;;;;12.18;5.03;;;;;;;-1.18;89.47;100177.59;5062189;28;20044;-73
2022/01/07 04:13:03;;;;;;;21.25;5.68;;;;;;;-1.16;89.31;100175.84;5067390;28;20039;-73
2022/01/07 04:15:28;;;;;;;18.05;5.47;;;;;;;-1.13;89.02;100176.63;5068345;28;20028;-73
2022/01/07 04:17:54;;;;;;;11.57;5.68;;;;;;;-1.09;88.86;100167.94;5051654;28;20405;-73
2022/01/07 04:20:31;;;;;;;18.73;4.85;;;;;;;-1.09;88.85;100162.81;5058968;28;20056;-73
2022/01/07 04:22:57;;;;;;;14.45;5.00;;;;;;;-1.08;88.86;100166.22;5063638;28;20048;-74
2022/01/07 04:25:23;;;;;;;16.90;5.55;;;;;;;-1.03;88.42;100164.41;5068753;28;20512;-74
2022/01/07 04:27:51;;;;;;;13.52;4.75;;;;;;;-1.05;88.48;100163.59;5065713;28;20463;-73
2022/01/07 04:30:17;;;;;;;14.00;5.27;;;;;;;-1.04;88.33;100168.72;5075854;28;20414;-76
2022/01/07 04:32:43;;;;;;;14.40;5.03;;;;;;;-1.03;88.29;100162.69;5063986;28;20028;-74
2022/01/07 04:35:09;;;;;;;34.25;19.98;;;;;;;-1.03;88.35;100161.84;5057320;28;20072;-75
2022/01/07 04:37:35;;;;;;;13.05;4.75;;;;;;;-1.01;88.47;100163.47;5052256;28;20060;-74
2022/01/07 04:40:02;;;;;;;17.48;5.32;;;;;;;-1.00;88.26;100154.06;5066082;28;20063;-74
2022/01/07 04:42:27;;;;;;;23.20;6.00;;;;;;;-1.03;88.19;100154.97;5065568;28;20549;-74
2022/01/07 04:44:52;;;;;;;23.83;5.45;;;;;;;-1.05;88.29;100153.28;5062350;28;20044;-74
2022/01/07 04:47:18;;;;;;;13.77;4.75;;;;;;;-1.00;88.35;100160.06;5066647;28;20040;-75
2022/01/07 04:49:43;;;;;;;19.48;4.93;;;;;;;-1.00;88.43;100161.78;5064474;28;20037;-73
2022/01/07 04:52:08;;;;;;;16.58;4.93;;;;;;;-0.94;88.20;100151.34;5065853;28;20101;-74
2022/01/07 04:54:34;;;;;;;20.35;4.65;;;;;;;-0.92;87.81;100147.00;5065770;28;20343;-74
2022/01/07 04:57:00;;;;;;;23.98;12.82;;;;;;;-0.89;87.75;100140.94;5066690;28;20119;-73
2022/01/07 04:59:26;;;;;;;18.75;5.57;;;;;;;-0.87;87.71;100140.03;5050104;22;20151;-89
2022/01/07 05:01:52;;;;;;;17.38;5.13;;;;;;;-0.83;87.66;100144.22;5032782;28;20041;-89
2022/01/07 05:04:21;;;;;;;21.17;4.75;;;;;;;-0.78;87.29;100141.53;5029209;28;20499;-89
2022/01/07 05:06:52;;;;;;;16.42;5.28;;;;;;;-0.76;87.13;100132.06;5014543;28;20034;-89
2022/01/07 05:09:18;;;;;;;19.58;5.53;;;;;;;-0.74;87.13;100130.31;5024858;28;20102;-89
2022/01/07 05:11:46;;;;;;;17.98;5.05;;;;;;;-0.72;87.30;100131.09;5026023;28;20044;-88
2022/01/07 05:14:24;;;;;;;16.85;5.50;;;;;;;-0.69;86.88;100135.34;5018277;28;20033;-89
2022/01/07 05:16:49;;;;;;;16.40;4.60;;;;;;;-0.61;86.54;100125.72;5012493;28;20038;-89
2022/01/07 05:19:15;;;;;;;12.90;4.90;;;;;;;-0.57;85.97;100125.59;5028024;28;20045;-89
2022/01/07 05:21:40;;;;;;;11.27;4.85;;;;;;;-0.55;86.16;100120.41;5016949;28;20037;-89
2022/01/07 05:24:07;;;;;;;15.02;5.07;;;;;;;-0.53;86.20;100111.75;5025357;28;20032;-90
2022/01/07 05:26:33;;;;;;;20.83;4.95;;;;;;;-0.50;86.03;100116.84;5035441;28;20045;-89
2022/01/07 05:28:58;;;;;;;20.80;5.22;;;;;;;-0.49;86.13;100109.94;5036265;28;20025;-90
2022/01/07 05:31:25;;;;;;;14.18;4.78;;;;;;;-0.46;86.38;100109.88;5037562;28;20041;-89
2022/01/07 05:33:54;;;;;;;13.00;4.20;;;;;;;-0.43;86.38;100112.38;5035319;28;20314;-89
2022/01/07 05:36:20;;;;;;;15.23;4.53;;;;;;;-0.40;85.84;100111.47;5034752;28;20128;-87
2022/01/07 05:38:51;;;;;;;15.70;4.90;;;;;;;-0.34;86.03;100116.44;5036323;28;20555;-89
2022/01/07 05:41:17;;;;;;;19.90;5.13;;;;;;;-0.32;85.94;100105.25;5028334;28;20059;-89
2022/01/07 05:43:43;;;;;;;14.73;4.85;;;;;;;-0.30;85.84;100100.91;5034569;28;20060;-89
2022/01/07 05:46:16;;;;;;;20.13;5.18;;;;;;;-0.26;86.11;100105.09;5028170;28;20029;-90
2022/01/07 05:48:43;;;;;;;19.35;5.82;;;;;;;-0.28;86.00;100100.84;5013624;28;20328;-89
2022/01/07 05:51:09;;;;;;;20.88;4.72;;;;;;;-0.25;86.14;100095.63;5022191;28;20029;-87
2022/01/07 05:53:35;;;;;;;18.50;5.35;;;;;;;-0.26;86.35;100097.38;5033231;28;20064;-88
2022/01/07 05:56:01;;;;;;;19.10;5.45;;;;;;;-0.28;86.74;100095.69;5033859;28;20042;-87
2022/01/07 05:58:26;;;;;;;16.80;4.63;;;;;;;-0.22;86.58;100094.69;5030742;28;20042;-87
2022/01/07 06:00:54;;;;;;;29.10;5.75;;;;;;;-0.17;86.22;100095.44;5034141;28;20021;-86
2022/01/07 06:03:20;;;;;;;15.95;5.68;;;;;;;-0.12;86.14;100096.13;5030747;28;20040;-86
2022/01/07 06:05:46;;;;;;;16.63;5.55;;;;;;;-0.11;86.22;100102.97;5030497;28;20029;-86
2022/01/07 06:08:11;;;;;;;29.48;5.40;;;;;;;-0.05;86.14;100102.81;5025377;28;20040;-87
2022/01/07 06:10:37;;;;;;;33.20;15.93;;;;;;;0.05;86.76;100098.28;5012574;28;20042;-87
2022/01/07 06:13:02;;;;;;;19.35;6.05;;;;;;;0.10;85.87;100104.16;5029395;28;20030;-87
2022/01/07 06:15:28;;;;;;;15.05;5.65;;;;;;;0.12;86.46;100102.38;5031320;28;20377;-85
2022/01/07 06:17:53;;;;;;;12.98;5.47;;;;;;;0.18;86.36;100090.16;5029288;28;20518;-87
2022/01/07 06:20:21;;;;;;;21.50;5.63;;;;;;;0.22;85.61;100090.91;5028677;28;20500;-86
2022/01/07 06:22:57;;;;;;;21.67;6.63;;;;;;;0.19;85.78;100097.03;5031496;28;20034;-88
2022/01/07 06:25:25;;;;;;;13.93;6.20;;;;;;;0.16;85.46;100086.78;5032050;28;20089;-86
2022/01/07 06:27:51;;;;;;;19.52;6.53;;;;;;;0.13;85.96;100091.19;5028374;28;20077;-86
2022/01/07 06:30:20;;;;;;;26.60;7.03;;;;;;;0.13;86.56;100088.59;5030664;28;20026;-87
2022/01/07 06:32:48;;;;;;;20.13;6.50;;;;;;;0.08;86.59;100081.00;5032536;28;20041;-87
2022/01/07 06:35:14;;;;;;;19.75;7.10;;;;;;;0.06;86.66;100075.03;5044902;28;20056;-87
2022/01/07 06:37:40;;;;;;;14.75;6.80;;;;;;;0.06;86.62;100077.59;5019737;28;20435;-86
2022/01/07 06:40:07;;;;;;;19.60;9.00;;;;;;;0.05;86.53;100067.34;5020117;28;20069;-88
2022/01/07 06:42:37;;;;;;;18.48;6.40;;;;;;;0.04;86.52;100068.22;5026880;28;20088;-88
2022/01/07 06:45:15;;;;;;;15.82;5.95;;;;;;;0.05;86.67;100073.34;5048611;28;20049;-88
2022/01/07 06:47:50;;;;;;;16.85;6.50;;;;;;;0.08;86.68;100067.28;5056270;28;20139;-87
2022/01/07 06:50:24;;;;;;;26.90;7.10;;;;;;;0.05;86.86;100062.19;5038691;28;20190;-88
2022/01/07 06:52:52;;;;;;;26.45;6.50;;;;;;;0.02;87.03;100064.84;5027915;28;20034;-88
2022/01/07 06:55:36;;;;;;;;;;;;;;;;;;;;;
2022/01/07 06:58:04;;;;;;;25.15;7.25;;;;;;;-0.01;87.12;100074.34;5022668;28;20525;-87
2022/01/07 07:00:30;;;;;;;16.48;6.72;;;;;;;0.00;87.12;100064.91;5031652;28;20029;-87
2022/01/07 07:02:56;;;;;;;22.75;6.95;;;;;;;0.04;86.75;100069.09;5033023;28;20103;-87
2022/01/07 07:05:48;;;;;;;26.17;7.43;;;;;;;0.05;86.69;100060.47;5022327;28;20037;-89
2022/01/07 07:08:14;;;;;;;19.23;6.18;;;;;;;0.12;86.28;100063.72;5034208;28;20112;-86
2022/01/07 07:10:42;;;;;;;24.90;6.53;;;;;;;0.14;86.13;100059.34;5023298;28;20045;-88
2022/01/07 07:13:18;;;;;;;;;;;;;;;;;;;;;
2022/01/07 07:15:44;;;;;;;19.90;6.55;;;;;;;0.17;85.67;100064.44;5047179;28;20086;-88
2022/01/07 07:18:13;;;;;;;21.63;7.53;;;;;;;0.21;85.65;100058.28;5024003;28;20050;-86
2022/01/07 07:20:38;;;;;;;;;;;;;;;0.21;85.33;100053.97;5042560;28;20034;-87
2022/01/07 07:23:04;;;;;;;15.35;5.90;;;;;;;0.21;85.42;100048.81;5034017;28;19917;-88
2022/01/07 07:25:31;;;;;;;23.25;6.53;;;;;;;0.22;85.25;100041.94;5022239;28;20043;-87
2022/01/07 07:27:59;;;;;;;16.90;6.25;;;;;;;0.23;85.46;100047.06;5029456;28;20037;-85
2022/01/07 07:30:38;;;;;;;33.45;6.65;;;;;;;0.24;85.21;100047.91;5042762;28;20076;-88
2022/01/07 07:38:43;;;;;;;20.52;7.38;;;;;;;0.34;84.87;100045.91;5041155;28;20040;-87
2022/01/07 07:41:14;;;;;;;22.80;6.25;;;;;;;0.37;84.26;100040.66;5043341;28;20098;-86
2022/01/07 07:43:46;;;;;;;27.85;8.00;;;;;;;0.40;84.38;100037.97;5025598;28;20038;-86
2022/01/07 07:46:11;;;;;;;23.50;7.32;;;;;;;0.44;84.11;100031.84;5030329;28;20128;-87
2022/01/07 07:48:37;;;;;;;18.30;6.63;;;;;;;0.48;84.17;100038.59;5030753;28;20078;-86
2022/01/07 07:51:03;;;;;;;17.17;5.90;;;;;;;0.50;84.01;100031.66;5039499;28;20034;-86
2022/01/07 07:53:28;;;;;;;19.52;7.90;;;;;;;0.51;83.97;100037.66;5018029;28;20038;-87
2022/01/07 07:55:55;;;;;;;22.25;6.80;;;;;;;0.58;83.46;100041.75;5023243;28;20048;-87
2022/01/07 07:58:22;;;;;;;33.22;6.93;;;;;;;0.57;83.77;100040.91;5030493;28;20405;-87
2022/01/07 08:00:48;;;;;;;24.35;9.70;;;;;;;0.62;83.72;100043.34;5045241;28;20519;-87
2022/01/07 08:03:16;;;;;;;24.98;8.02;;;;;;;0.61;83.52;100037.34;5041791;28;20071;-88
2022/01/07 08:05:42;;;;;;;22.13;7.50;;;;;;;0.62;83.62;100041.59;5032506;28;20034;-88
2022/01/07 08:08:13;;;;;;;23.40;6.70;;;;;;;0.66;83.62;100032.03;5029444;28;20071;-88
2022/01/07 08:10:47;;;;;;;19.92;6.03;;;;;;;0.67;82.89;100021.69;5032003;28;20064;-87
2022/01/07 08:15:58;;;;;;;19.27;6.82;;;;;;;0.75;82.83;100013.72;5033595;28;20442;-86
2022/01/07 08:18:28;;;;;;;19.77;6.35;;;;;;;0.74;82.97;100009.41;5040830;28;20387;-86
2022/01/07 08:20:55;;;;;;;20.77;6.88;;;;;;;0.77;82.94;100013.66;5031330;28;20053;-87
2022/01/07 08:23:22;;;;;;;28.70;7.78;;;;;;;0.77;82.99;100011.06;5028326;28;20466;-87
2022/01/07 08:25:47;;;;;;;29.13;9.38;;;;;;;0.79;83.05;100006.72;5033480;28;20500;-86
2022/01/07 08:28:15;;;;;;;19.52;7.45;;;;;;;0.77;83.00;100000.75;5024840;28;20128;-87
2022/01/07 08:31:01;;;;;;;18.83;7.00;;;;;;;0.79;83.06;100002.41;5039721;28;20059;-87
2022/01/07 08:36:15;;;;;;;20.05;6.28;;;;;;;0.76;82.90;99996.50;5027902;28;20431;-86
2022/01/07 08:38:48;;;;;;;19.25;7.50;;;;;;;0.75;82.96;99998.22;5031454;28;20041;-87
2022/01/07 08:41:13;;;;;;;15.82;6.07;;;;;;;0.76;82.92;99991.31;5033969;28;20503;-88
2022/01/07 08:43:39;;;;;;;20.67;7.00;;;;;;;0.79;82.87;99986.91;5034515;28;20082;-88
2022/01/07 08:46:19;;;;;;;19.85;6.55;;;;;;;0.82;82.48;99986.81;5026267;28;20053;-87
2022/01/07 08:49:11;;;;;;;17.08;6.68;;;;;;;0.88;82.77;99978.03;5030912;28;20030;-87
2022/01/07 08:51:39;;;;;;;15.07;5.95;;;;;;;0.91;82.75;99981.34;5035678;28;20098;-86
2022/01/07 08:54:07;;;;;;;17.20;5.68;;;;;;;0.96;81.94;99976.91;5033488;28;20037;-89
2022/01/07 08:56:37;;;;;;;23.33;6.05;;;;;;;0.98;82.59;99960.50;5017247;28;20153;-88
2022/01/07 08:59:28;;;;;;;26.45;7.80;;;;;;;1.04;82.13;99960.28;5025887;28;20110;-89
2022/01/07 09:01:58;;;;;;;17.27;6.40;;;;;;;1.08;81.70;99967.91;5031728;28;20025;-90
2022/01/07 09:04:39;;;;;;;;;;;;;;;;;;;;;
2022/01/07 09:07:23;;;;;;;15.88;6.20;;;;;;;1.19;81.37;99949.47;5025193;28;20060;-90
2022/01/07 09:10:00;;;;;;;17.88;5.85;;;;;;;1.25;81.34;99949.25;5010979;28;20021;-87
2022/01/07 09:12:44;;;;;;;39.17;6.30;;;;;;;1.31;80.65;99935.28;5033564;28;20028;-87
2022/01/07 09:15:19;;;;;;;20.20;5.90;;;;;;;1.38;80.91;99926.44;5029405;28;20114;-88
2022/01/07 09:17:50;;;;;;;23.10;5.88;;;;;;;1.38;80.06;99918.69;5016408;28;20045;-89
2022/01/07 09:20:17;;;;;;;16.70;6.13;;;;;;;1.42;80.07;99928.00;5009871;28;20121;-86
2022/01/07 09:22:45;;;;;;;20.70;5.68;;;;;;;1.45;80.28;99922.75;5017860;28;20033;-86
2022/01/07 09:25:22;;;;;;;18.13;5.43;;;;;;;1.45;79.91;99910.66;5028426;28;20042;-87
2022/01/07 09:27:48;;;;;;;19.90;6.68;;;;;;;1.45;80.04;99922.75;5036194;28;20098;-88
2022/01/07 09:30:17;;;;;;;24.38;6.32;;;;;;;1.48;79.71;99914.03;5021071;28;20418;-87
2022/01/07 09:32:53;;;;;;;18.10;5.57;;;;;;;1.48;79.66;99922.59;5039292;28;20038;-86
2022/01/07 09:35:22;;;;;;;18.60;6.60;;;;;;;1.49;79.82;99916.56;5030605;28;20205;-87
2022/01/07 09:37:51;;;;;;;17.42;5.63;;;;;;;1.55;79.57;99915.50;5030618;28;20119;-88
2022/01/07 09:40:18;;;;;;;14.30;6.03;;;;;;;1.52;79.54;99919.06;5024433;28;20431;-89
2022/01/07 09:43:00;;;;;;;18.15;5.20;;;;;;;1.55;79.65;99916.31;5029421;28;20457;-88
2022/01/07 09:45:27;;;;;;;14.80;5.43;;;;;;;1.60;79.05;99921.34;5023281;28;20029;-86
2022/01/07 09:47:54;;;;;;;19.80;5.60;;;;;;;1.63;78.91;99910.88;5027454;28;20049;-86
2022/01/07 09:50:22;;;;;;;17.90;6.00;;;;;;;1.70;78.79;99920.09;5013518;28;20037;-88
2022/01/07 09:52:50;;;;;;;23.63;6.20;;;;;;;1.73;78.50;99917.41;5028225;28;20051;-88
2022/01/07 09:55:16;;;;;;;20.15;5.60;;;;;;;1.79;78.87;99916.34;5040492;28;20482;-87
2022/01/07 09:57:42;;;;;;;13.70;5.85;;;;;;;1.81;78.21;99914.53;5015024;28;20136;-86
2022/01/07 10:00:13;;;;;;;19.08;5.97;;;;;;;1.81;78.01;99915.38;5023267;28;20026;-86
2022/01/07 10:02:58;;;;;;;21.35;5.80;;;;;;;1.83;78.67;99912.75;5020476;28;20644;-88
2022/01/07 10:05:26;;;;;;;18.27;5.78;;;;;;;1.90;78.10;99917.63;5012927;28;20500;-87
2022/01/07 10:07:55;;;;;;;14.52;6.20;;;;;;;1.97;77.92;99913.09;5016175;28;20034;-88
2022/01/07 10:10:26;;;;;;;20.17;5.63;;;;;;;2.01;78.19;99906.91;5037461;28;20057;-88
2022/01/07 10:13:06;;;;;;;24.65;6.82;;;;;;;2.07;77.63;99904.06;5014725;28;20022;-87
2022/01/07 10:15:37;;;;;;;15.98;5.68;;;;;;;2.08;77.62;99899.75;5035336;28;20071;-87
2022/01/07 10:18:07;;;;;;;13.45;5.65;;;;;;;2.12;77.53;99893.56;5027277;28;20041;-86
2022/01/07 10:20:42;;;;;;;18.67;6.35;;;;;;;2.17;77.13;99891.63;5037639;28;20080;-86
2022/01/07 10:23:26;;;;;;;;;;;;;;;;;;;;;
2022/01/07 10:26:16;;;;;;;14.15;5.22;;;;;;;2.20;77.58;99894.09;5019984;28;20059;-88
2022/01/07 10:28:49;;;;;;;17.00;5.38;;;;;;;2.23;77.37;99894.00;5011614;28;20167;-88
2022/01/07 10:31:27;;;;;;;16.95;5.72;;;;;;;2.25;77.53;99883.56;5023554;28;20913;-87
2022/01/07 10:34:03;;;;;;;13.60;5.45;;;;;;;2.26;77.16;99890.41;5030561;28;20053;-87
2022/01/07 10:36:58;;;;;;;28.80;5.97;;;;;;;2.31;77.91;99891.09;5029421;28;20417;-88
2022/01/07 10:39:32;;;;;;;11.85;5.07;;;;;;;2.29;77.28;99891.13;5016110;28;20049;-88
2022/01/07 10:42:02;;;;;;;28.13;7.32;;;;;;;2.29;77.71;99890.31;5002338;28;20034;-87
2022/01/07 10:45:00;;;;;;;17.58;6.32;;;;;;;2.32;78.13;99882.44;5023227;28;20107;-86
2022/01/07 10:47:37;;;;;;;21.73;6.30;;;;;;;2.36;77.64;99878.81;5015029;28;20433;-87
2022/01/07 10:50:41;;;;;;;17.33;5.65;;;;;;;2.40;77.43;99873.44;5029395;28;20169;-88
2022/01/07 10:53:36;;;;;;;19.20;5.78;;;;;;;2.38;77.60;99875.28;5019463;28;20466;-87
2022/01/07 10:56:06;;;;;;;15.55;5.20;;;;;;;2.41;77.75;99869.09;5033692;28;20044;-87
2022/01/07 10:58:46;;;;;;;13.13;5.43;;;;;;;2.42;77.92;99866.47;5009106;28;20374;-86
2022/01/07 11:01:20;;;;;;;26.67;7.03;;;;;;;2.47;77.61;99865.44;5025544;28;20049;-87
2022/01/07 11:03:59;;;;;;;21.67;6.38;;;;;;;2.50;77.28;99860.16;5017132;28;20030;-87
2022/01/07 11:06:26;;;;;;;20.30;7.00;;;;;;;2.53;77.48;99858.28;5026062;28;20021;-88
2022/01/07 11:08:54;;;;;;;18.60;7.28;;;;;;;2.61;77.58;99855.38;5036696;28;20098;-88
2022/01/07 11:11:21;;;;;;;24.60;7.82;;;;;;;2.71;77.07;99850.63;5019118;28;20534;-88
2022/01/07 11:13:47;;;;;;;21.80;7.13;;;;;;;2.76;76.79;99848.72;5032888;28;20510;-88
2022/01/07 11:16:13;;;;;;;19.90;6.07;;;;;;;2.81;76.52;99836.41;5016511;28;20096;-88
2022/01/07 11:18:43;;;;;;;16.73;5.72;;;;;;;2.83;76.42;99842.38;5027003;28;20052;-88
2022/01/07 11:21:10;;;;;;;17.70;6.65;;;;;;;2.83;76.62;99834.63;5033258;28;20067;-88
2022/01/07 11:23:38;;;;;;;19.27;5.68;;;;;;;2.92;76.24;99834.22;5034005;28;20037;-87
2022/01/07 11:26:05;;;;;;;23.25;6.13;;;;;;;2.93;76.42;99830.75;5039960;28;20465;-86
2022/01/07 11:28:31;;;;;;;27.92;6.35;;;;;;;2.96;76.11;99820.22;5034269;28;20046;-86
2022/01/07 11:31:10;;;;;;;18.85;5.63;;;;;;;2.97;75.79;99821.94;5042745;28;20531;-87
2022/01/07 11:33:51;;;;;;;11.98;4.53;;;;;;;2.98;75.41;99822.75;5037017;28;20083;-89
2022/01/07 11:36:37;;;;;;;13.32;4.88;;;;;;;2.94;75.45;99822.06;5014263;28;20064;-87
2022/01/07 11:39:05;;;;;;;17.17;4.85;;;;;;;2.95;75.13;99826.31;5018511;28;20037;-88
2022/01/07 11:41:56;;;;;;;14.02;5.38;;;;;;;2.97;75.26;99827.09;5023206;28;20045;-89
2022/01/07 11:44:26;;;;;;;12.65;4.78;;;;;;;3.01;75.40;99822.63;5027826;28;20041;-87
2022/01/07 11:47:24;;;;;;;16.55;4.65;;;;;;;2.99;75.17;99820.09;5031371;28;20586;-87
2022/01/07 11:50:31;;;;;;;18.08;4.82;;;;;;;3.01;75.21;99826.06;5023229;28;20029;-89